createdAt,value
2019-02-27T00:00:44.821Z,175.42
2019-02-27T00:01:30.521Z,167.43
2019-02-27T00:02:08.061Z,168.17
2019-02-27T00:02:45.895Z,173.28
2019-02-27T00:03:24.028Z,165.55
2019-02-27T00:04:02.375Z,182.30
2019-02-27T00:04:40.850Z,155.65
2019-02-27T00:05:18.472Z,166.55
2019-02-27T00:05:56.544Z,173.28
2019-02-27T00:06:34.684Z,164.07
2019-02-27T00:07:12.755Z,168.97
2019-02-27T00:07:53.937Z,171.28
2019-02-27T00:08:30.242Z,167.75
2019-02-27T00:09:10.772Z,167.98
2019-02-27T00:09:48.910Z,177.87
2019-02-27T00:10:26.611Z,179.10
2019-02-27T00:11:04.617Z,173.87
2019-02-27T00:11:45.999Z,176.97
2019-02-27T00:12:21.096Z,167.72
2019-02-27T00:12:58.738Z,165.92
2019-02-27T00:13:36.500Z,174.30
2019-02-27T00:14:14.330Z,170.95
2019-02-27T00:14:52.180Z,178.15
2019-02-27T00:15:29.986Z,179.75
2019-02-27T00:16:10.869Z,178.50
2019-02-27T00:16:46.681Z,182.95
2019-02-27T00:17:24.102Z,181.67
2019-02-27T00:18:01.134Z,179.65
2019-02-27T00:18:38.816Z,185.43
2019-02-27T00:19:16.622Z,176.95
2019-02-27T00:19:54.486Z,180.03
2019-02-27T00:20:31.940Z,188.70
2019-02-27T00:21:10.962Z,190.12
2019-02-27T00:21:49.102Z,170.10
2019-02-27T00:22:26.542Z,176.87
2019-02-27T00:23:04.014Z,166.37
2019-02-27T00:23:41.177Z,188.57
2019-02-27T00:24:19.195Z,179.90
2019-02-27T00:24:57.157Z,178.93
2019-02-27T00:25:36.087Z,169.95
2019-02-27T00:26:14.410Z,165.65
2019-02-27T00:26:52.340Z,168.95
2019-02-27T00:27:30.518Z,182.43
2019-02-27T00:28:08.291Z,173.25
2019-02-27T00:28:46.024Z,180.93
2019-02-27T00:29:24.065Z,178.00
2019-02-27T00:30:04.813Z,170.70
2019-02-27T00:30:41.093Z,168.55
2019-02-27T00:31:18.856Z,177.20
2019-02-27T00:31:56.841Z,174.97
2019-02-27T00:32:35.052Z,189.05
2019-02-27T00:33:12.852Z,178.62
2019-02-27T00:33:50.488Z,187.70
2019-02-27T00:34:28.192Z,184.55
2019-02-27T00:35:07.277Z,179.40
2019-02-27T00:35:45.307Z,178.15
2019-02-27T00:36:23.088Z,183.95
2019-02-27T00:37:00.870Z,187.77
2019-02-27T00:37:38.620Z,187.15
2019-02-27T00:38:16.159Z,176.75
2019-02-27T00:38:53.204Z,179.85
2019-02-27T00:39:31.787Z,189.95
2019-02-27T00:40:09.396Z,184.85
2019-02-27T00:40:47.604Z,180.50
2019-02-27T00:41:24.654Z,202.62
2019-02-27T00:42:02.101Z,186.52
2019-02-27T00:42:39.503Z,188.65
2019-02-27T00:43:16.545Z,188.32
2019-02-27T00:43:54.213Z,178.68
2019-02-27T00:44:33.970Z,183.22
2019-02-27T00:45:11.764Z,157.62
2019-02-27T00:45:49.396Z,177.15
2019-02-27T00:46:27.176Z,168.22
2019-02-27T00:47:04.579Z,192.13
2019-02-27T00:47:42.008Z,186.37
2019-02-27T00:48:19.857Z,189.47
2019-02-27T00:48:59.094Z,197.30
2019-02-27T00:49:36.296Z,184.50
2019-02-27T00:50:13.842Z,191.77
2019-02-27T00:50:51.554Z,181.97
2019-02-27T00:51:28.992Z,198.72
2019-02-27T00:52:06.367Z,168.02
2019-02-27T00:52:44.052Z,176.65
2019-02-27T00:53:24.517Z,185.07
2019-02-27T00:54:01.216Z,194.28
2019-02-27T00:54:39.373Z,180.75
2019-02-27T00:55:17.138Z,184.72
2019-02-27T00:55:54.739Z,190.10
2019-02-27T00:56:32.506Z,198.15
2019-02-27T00:57:09.988Z,182.50
2019-02-27T00:57:46.955Z,178.95
2019-02-27T00:58:27.070Z,178.15
2019-02-27T00:59:04.166Z,184.43
2019-02-27T00:59:41.929Z,201.95
2019-02-27T01:00:20.036Z,200.72
2019-02-27T01:00:57.822Z,197.60
2019-02-27T01:01:34.915Z,188.45
2019-02-27T01:02:12.599Z,189.20
2019-02-27T01:02:52.643Z,192.20
2019-02-27T01:03:30.145Z,184.28
2019-02-27T01:04:07.696Z,176.75
2019-02-27T01:04:45.156Z,189.72
2019-02-27T01:05:22.873Z,181.72
2019-02-27T01:06:00.100Z,178.95
2019-02-27T01:06:37.284Z,197.50
2019-02-27T01:07:20.202Z,196.75
2019-02-27T01:07:55.922Z,185.63
2019-02-27T01:08:34.102Z,192.00
2019-02-27T01:09:12.289Z,183.40
2019-02-27T01:09:50.952Z,191.53
2019-02-27T01:10:28.964Z,182.27
2019-02-27T01:11:08.231Z,186.77
2019-02-27T01:11:45.822Z,184.07
2019-02-27T01:12:25.072Z,193.65
2019-02-27T01:13:02.412Z,182.85
2019-02-27T01:13:40.248Z,184.20
2019-02-27T01:14:18.039Z,187.70
2019-02-27T01:14:55.390Z,191.55
2019-02-27T01:15:33.425Z,178.95
2019-02-27T01:16:11.350Z,179.85
2019-02-27T01:16:50.264Z,196.05
2019-02-27T01:17:28.252Z,191.75
2019-02-27T01:18:05.466Z,178.57
2019-02-27T01:18:43.314Z,186.15
2019-02-27T01:19:21.244Z,185.80
2019-02-27T01:19:58.718Z,194.75
2019-02-27T01:20:36.812Z,188.03
2019-02-27T01:21:19.229Z,189.00
2019-02-27T01:21:54.586Z,189.97
2019-02-27T01:22:32.524Z,192.65
2019-02-27T01:23:11.160Z,185.95
2019-02-27T01:23:48.764Z,181.65
2019-02-27T01:24:26.436Z,192.25
2019-02-27T01:25:04.385Z,183.03
2019-02-27T01:25:42.231Z,182.40
2019-02-27T01:26:19.300Z,180.07
2019-02-27T01:26:57.449Z,197.07
2019-02-27T01:27:37.947Z,173.43
2019-02-27T01:28:14.056Z,188.22
2019-02-27T01:28:51.750Z,197.82
2019-02-27T01:29:29.588Z,190.82
2019-02-27T01:30:07.594Z,179.32
2019-02-27T01:30:44.976Z,186.15
2019-02-27T01:31:24.060Z,192.90
2019-02-27T01:32:02.191Z,190.12
2019-02-27T01:32:39.908Z,177.05
2019-02-27T01:33:18.044Z,184.25
2019-02-27T01:33:55.088Z,182.78
2019-02-27T01:34:32.561Z,196.18
2019-02-27T01:35:10.634Z,179.70
2019-02-27T01:35:51.259Z,165.03
2019-02-27T01:36:27.864Z,173.70
2019-02-27T01:37:05.764Z,165.05
2019-02-27T01:37:43.918Z,181.85
2019-02-27T01:38:21.128Z,179.20
2019-02-27T01:38:59.222Z,179.55
2019-02-27T01:39:36.668Z,171.45
2019-02-27T01:40:17.200Z,178.57
2019-02-27T01:40:54.130Z,186.10
2019-02-27T01:41:31.358Z,191.98
2019-02-27T01:42:09.090Z,191.37
2019-02-27T01:42:46.929Z,174.57
2019-02-27T01:43:24.535Z,188.40
2019-02-27T01:44:02.223Z,170.77
2019-02-27T01:44:41.129Z,177.55
2019-02-27T01:45:21.017Z,176.40
2019-02-27T01:45:57.826Z,180.57
2019-02-27T01:46:36.256Z,185.32
2019-02-27T01:47:14.298Z,174.60
2019-02-27T01:47:52.010Z,176.35
2019-02-27T01:48:29.487Z,173.70
2019-02-27T01:49:07.381Z,166.18
2019-02-27T01:49:48.925Z,172.70
2019-02-27T01:50:36.180Z,172.85
2019-02-27T01:51:13.734Z,182.82
2019-02-27T01:51:53.974Z,168.87
2019-02-27T01:52:34.104Z,162.80
2019-02-27T01:53:11.737Z,169.80
2019-02-27T01:53:49.185Z,174.65
2019-02-27T01:54:26.656Z,180.57
2019-02-27T01:55:04.386Z,173.45
2019-02-27T01:55:41.620Z,171.47
2019-02-27T01:56:18.624Z,183.68
2019-02-27T01:56:56.294Z,174.40
2019-02-27T01:57:36.715Z,166.20
2019-02-27T01:58:13.176Z,170.22
2019-02-27T01:58:50.388Z,171.65
2019-02-27T01:59:28.225Z,180.22
2019-02-27T02:00:06.452Z,166.37
2019-02-27T02:00:43.824Z,184.55
2019-02-27T02:01:21.378Z,182.02
2019-02-27T02:02:01.066Z,171.72
2019-02-27T02:02:40.524Z,173.68
2019-02-27T02:03:18.502Z,180.18
2019-02-27T02:03:56.060Z,174.82
2019-02-27T02:04:33.585Z,166.10
2019-02-27T02:05:11.681Z,181.37
2019-02-27T02:05:48.806Z,183.42
2019-02-27T02:06:26.340Z,174.45
2019-02-27T02:07:06.578Z,172.35
2019-02-27T02:07:46.228Z,173.82
2019-02-27T02:08:23.730Z,180.22
2019-02-27T02:09:31.168Z,180.00
2019-02-27T02:10:08.789Z,166.68
2019-02-27T02:10:46.577Z,165.43
2019-02-27T02:11:24.426Z,164.67
2019-02-27T02:12:03.254Z,182.65
2019-02-27T02:12:41.638Z,174.15
2019-02-27T02:13:30.786Z,162.27
2019-02-27T02:14:45.681Z,183.32
2019-02-27T02:15:53.602Z,180.72
2019-02-27T02:17:09.968Z,165.52
2019-02-27T02:18:19.000Z,177.32
2019-02-27T02:19:33.430Z,169.75
2019-02-27T02:20:40.156Z,190.12
2019-02-27T02:21:42.455Z,168.28
2019-02-27T02:23:13.960Z,175.03
2019-02-27T02:24:26.048Z,179.70
2019-02-27T02:25:50.928Z,168.52
2019-02-27T02:26:40.704Z,183.03
2019-02-27T02:27:52.105Z,163.70
2019-02-27T02:29:22.599Z,173.97
2019-02-27T02:31:04.946Z,170.28
2019-02-27T02:31:43.821Z,169.25
2019-02-27T02:32:37.519Z,153.57
2019-02-27T02:33:28.670Z,164.15
2019-02-27T02:34:46.286Z,172.02
2019-02-27T02:35:35.541Z,165.73
2019-02-27T02:36:38.925Z,164.45
2019-02-27T02:37:51.435Z,194.67
2019-02-27T02:38:53.129Z,181.00
2019-02-27T02:40:05.778Z,172.05
2019-02-27T02:41:25.859Z,162.35
2019-02-27T02:42:30.773Z,174.93
2019-02-27T02:43:33.037Z,166.73
2019-02-27T02:44:57.726Z,179.70
2019-02-27T02:45:45.646Z,176.37
2019-02-27T02:46:37.184Z,170.17
2019-02-27T02:47:46.887Z,176.80
2019-02-27T02:48:45.202Z,169.82
2019-02-27T02:49:47.159Z,169.72
2019-02-27T02:50:57.266Z,167.85
2019-02-27T02:52:04.366Z,173.15
2019-02-27T02:53:11.394Z,166.22
2019-02-27T02:54:15.298Z,165.92
2019-02-27T02:55:50.633Z,167.70
2019-02-27T02:56:44.666Z,175.40
2019-02-27T02:58:01.699Z,188.25
2019-02-27T02:59:24.267Z,168.37
2019-02-27T03:00:26.832Z,170.97
2019-02-27T03:01:18.616Z,168.80
2019-02-27T03:02:39.006Z,179.55
2019-02-27T03:03:41.462Z,182.50
2019-02-27T03:04:48.470Z,175.80
2019-02-27T03:05:49.824Z,198.45
2019-02-27T03:06:54.931Z,183.15
2019-02-27T03:07:57.552Z,185.88
2019-02-27T03:08:57.681Z,179.75
2019-02-27T03:10:18.119Z,182.22
2019-02-27T03:11:19.038Z,193.82
2019-02-27T03:12:39.988Z,196.53
2019-02-27T03:13:41.515Z,186.75
2019-02-27T03:14:39.026Z,198.38
2019-02-27T03:15:43.490Z,185.05
2019-02-27T03:16:50.866Z,185.18
2019-02-27T03:18:05.732Z,179.03
2019-02-27T03:19:05.042Z,178.05
2019-02-27T03:20:20.713Z,168.78
2019-02-27T03:21:06.201Z,201.15
2019-02-27T03:22:11.699Z,188.05
2019-02-27T03:23:22.486Z,187.85
2019-02-27T03:24:34.277Z,169.77
2019-02-27T03:25:41.918Z,189.22
2019-02-27T03:26:38.159Z,181.65
2019-02-27T03:27:30.859Z,168.43
2019-02-27T03:28:40.985Z,191.12
2019-02-27T03:29:34.565Z,173.50
2019-02-27T03:31:02.358Z,197.13
2019-02-27T03:32:04.200Z,179.10
2019-02-27T03:32:53.146Z,173.87
2019-02-27T03:34:05.802Z,186.03
2019-02-27T03:35:29.241Z,181.47
2019-02-27T03:37:02.285Z,183.27
2019-02-27T03:38:04.727Z,180.22
2019-02-27T03:39:06.756Z,180.95
2019-02-27T03:40:13.056Z,180.50
2019-02-27T03:41:32.827Z,183.07
2019-02-27T03:42:57.308Z,184.15
2019-02-27T03:44:02.130Z,186.28
2019-02-27T03:44:45.674Z,187.25
2019-02-27T03:46:06.210Z,209.18
2019-02-27T03:46:55.515Z,178.68
2019-02-27T03:48:27.534Z,190.40
2019-02-27T03:49:49.980Z,192.50
2019-02-27T03:50:58.836Z,175.32
2019-02-27T03:52:12.938Z,193.22
2019-02-27T03:53:12.181Z,197.10
2019-02-27T03:54:21.334Z,202.60
2019-02-27T03:55:32.890Z,174.93
2019-02-27T03:56:35.908Z,180.52
2019-02-27T03:57:33.653Z,178.82
2019-02-27T03:58:39.089Z,177.20
2019-02-27T04:00:19.164Z,194.02
2019-02-27T04:01:30.078Z,171.70
2019-02-27T04:02:26.732Z,182.75
2019-02-27T04:03:18.255Z,177.40
2019-02-27T04:04:08.540Z,180.63
2019-02-27T04:05:11.283Z,182.85
2019-02-27T04:06:21.378Z,176.32
2019-02-27T04:07:31.508Z,183.05
2019-02-27T04:08:44.873Z,187.75
2019-02-27T04:09:20.455Z,182.35
2019-02-27T04:09:58.696Z,181.07
2019-02-27T04:10:36.521Z,169.10
2019-02-27T04:11:14.609Z,181.37
2019-02-27T04:11:52.034Z,195.70
2019-02-27T04:12:29.977Z,185.90
2019-02-27T04:13:07.443Z,190.60
2019-02-27T04:13:45.056Z,186.88
2019-02-27T04:14:40.432Z,178.02
2019-02-27T04:15:17.756Z,186.70
2019-02-27T04:15:53.668Z,188.42
2019-02-27T04:16:32.202Z,188.93
2019-02-27T04:17:09.674Z,195.45
2019-02-27T04:17:51.781Z,201.15
2019-02-27T04:18:27.501Z,178.75
2019-02-27T04:19:04.387Z,186.80
2019-02-27T04:19:43.009Z,174.07
2019-02-27T04:20:20.757Z,176.93
2019-02-27T04:20:58.633Z,164.47
2019-02-27T04:21:36.511Z,184.25
2019-02-27T04:22:14.543Z,173.78
2019-02-27T04:22:52.271Z,198.13
2019-02-27T04:23:30.038Z,175.42
2019-02-27T04:24:07.826Z,184.78
2019-02-27T04:24:45.406Z,171.50
2019-02-27T04:25:23.127Z,172.00
2019-02-27T04:26:05.270Z,180.45
2019-02-27T04:26:41.865Z,195.12
2019-02-27T04:27:21.282Z,169.30
2019-02-27T04:27:58.962Z,172.75
2019-02-27T04:28:36.969Z,183.10
2019-02-27T04:29:14.912Z,170.35
2019-02-27T04:29:52.965Z,192.43
2019-02-27T04:30:30.629Z,170.95
2019-02-27T04:31:08.031Z,187.95
2019-02-27T04:31:46.094Z,179.87
2019-02-27T04:32:23.657Z,171.82
2019-02-27T04:33:01.418Z,186.75
2019-02-27T04:33:38.909Z,191.22
2019-02-27T04:34:16.940Z,158.70
2019-02-27T04:34:54.381Z,181.80
2019-02-27T04:35:31.779Z,176.93
2019-02-27T04:36:12.483Z,179.93
2019-02-27T04:36:48.367Z,178.18
2019-02-27T04:37:26.071Z,176.57
2019-02-27T04:38:03.981Z,178.72
2019-02-27T04:38:41.765Z,178.45
2019-02-27T04:39:18.609Z,170.70
2019-02-27T04:39:56.359Z,173.30
2019-02-27T04:40:33.741Z,174.45
2019-02-27T04:41:11.681Z,166.92
2019-02-27T04:41:51.979Z,178.87
2019-02-27T04:42:28.789Z,176.42
2019-02-27T04:43:06.497Z,160.88
2019-02-27T04:43:43.762Z,173.47
2019-02-27T04:44:23.032Z,185.63
2019-02-27T04:45:01.025Z,172.57
2019-02-27T04:45:38.077Z,177.87
2019-02-27T04:46:15.870Z,173.25
2019-02-27T04:46:55.092Z,166.43
2019-02-27T04:47:33.068Z,183.32
2019-02-27T04:48:10.956Z,169.85
2019-02-27T04:48:48.395Z,171.22
2019-02-27T04:49:26.041Z,168.45
2019-02-27T04:50:03.497Z,167.75
2019-02-27T04:50:41.726Z,179.70
2019-02-27T04:51:20.700Z,174.50
2019-02-27T04:51:58.823Z,179.75
2019-02-27T04:52:36.816Z,162.40
2019-02-27T04:53:14.490Z,155.57
2019-02-27T04:53:52.211Z,175.75
2019-02-27T04:54:29.739Z,168.52
2019-02-27T04:55:07.064Z,158.42
2019-02-27T04:55:45.247Z,159.12
2019-02-27T04:56:23.292Z,169.95
2019-02-27T04:57:01.003Z,174.10
2019-02-27T04:57:39.003Z,169.97
2019-02-27T04:58:16.467Z,164.65
2019-02-27T04:58:53.557Z,171.43
2019-02-27T04:59:31.573Z,171.25
2019-02-27T05:00:10.170Z,169.32
2019-02-27T05:00:48.279Z,163.45
2019-02-27T05:01:26.346Z,167.68
2019-02-27T05:02:04.536Z,167.28
2019-02-27T05:02:42.167Z,173.95
2019-02-27T05:03:20.044Z,170.68
2019-02-27T05:04:01.091Z,156.00
2019-02-27T05:04:37.229Z,158.15
2019-02-27T05:05:15.173Z,164.72
2019-02-27T05:05:53.088Z,161.18
2019-02-27T05:06:31.212Z,166.35
2019-02-27T05:07:07.921Z,160.20
2019-02-27T05:07:45.501Z,174.10
2019-02-27T05:08:26.846Z,179.70
2019-02-27T05:09:03.045Z,171.20
2019-02-27T05:09:40.119Z,167.53
2019-02-27T05:10:17.617Z,166.62
2019-02-27T05:10:55.577Z,169.43
2019-02-27T05:11:33.323Z,170.25
2019-02-27T05:12:10.908Z,169.47
2019-02-27T05:12:48.987Z,163.50
2019-02-27T05:13:26.501Z,152.27
2019-02-27T05:14:03.873Z,166.15
2019-02-27T05:14:41.418Z,158.90
2019-02-27T05:15:19.578Z,177.20
2019-02-27T05:15:57.682Z,167.80
2019-02-27T05:16:35.233Z,172.98
2019-02-27T05:17:12.971Z,178.82
2019-02-27T05:17:53.043Z,170.65
2019-02-27T05:18:30.284Z,175.53
2019-02-27T05:19:07.869Z,154.93
2019-02-27T05:19:44.919Z,167.72
2019-02-27T05:20:23.017Z,158.63
2019-02-27T05:21:00.789Z,164.52
2019-02-27T05:21:38.575Z,161.52
2019-02-27T05:22:16.465Z,151.90
2019-02-27T05:22:54.249Z,157.37
2019-02-27T05:23:33.535Z,158.75
2019-02-27T05:24:11.599Z,153.60
2019-02-27T05:24:49.656Z,155.72
2019-02-27T05:25:27.251Z,157.93
2019-02-27T05:26:05.042Z,153.23
2019-02-27T05:26:42.967Z,152.35
2019-02-27T05:27:20.409Z,149.55
2019-02-27T05:28:01.003Z,148.60
2019-02-27T05:28:37.670Z,165.95
2019-02-27T05:29:15.887Z,155.25
2019-02-27T05:29:53.785Z,152.30
2019-02-27T05:30:31.488Z,154.03
2019-02-27T05:31:08.666Z,155.80
2019-02-27T05:31:46.686Z,149.10
2019-02-27T05:32:25.272Z,152.80
2019-02-27T05:33:03.605Z,147.35
2019-02-27T05:33:41.162Z,161.65
2019-02-27T05:34:18.650Z,148.87
2019-02-27T05:34:56.081Z,153.07
2019-02-27T05:35:34.185Z,155.90
2019-02-27T05:36:12.177Z,151.37
2019-02-27T05:36:49.957Z,146.45
2019-02-27T05:37:27.419Z,155.00
2019-02-27T05:38:04.965Z,147.65
2019-02-27T05:39:01.779Z,150.27
2019-02-27T05:39:39.525Z,158.37
2019-02-27T05:40:17.058Z,147.10
2019-02-27T05:40:54.645Z,150.32
2019-02-27T05:41:33.270Z,163.52
2019-02-27T05:42:13.094Z,142.07
2019-02-27T05:42:50.289Z,155.87
2019-02-27T05:43:28.278Z,155.20
2019-02-27T05:44:06.238Z,153.80
2019-02-27T05:44:43.971Z,149.15
2019-02-27T05:45:21.759Z,147.40
2019-02-27T05:46:02.743Z,159.95
2019-02-27T05:46:39.129Z,143.87
2019-02-27T05:47:17.063Z,143.90
2019-02-27T05:47:54.585Z,157.30
2019-02-27T05:48:32.529Z,157.07
2019-02-27T05:49:10.261Z,140.22
2019-02-27T05:49:48.009Z,147.35
2019-02-27T05:50:27.561Z,142.65
2019-02-27T05:51:07.507Z,156.90
2019-02-27T05:51:45.213Z,164.40
2019-02-27T05:52:23.302Z,151.35
2019-02-27T05:53:01.005Z,161.07
2019-02-27T05:53:38.451Z,138.03
2019-02-27T05:54:16.582Z,153.25
2019-02-27T05:54:54.385Z,144.17
2019-02-27T05:55:32.525Z,148.55
2019-02-27T05:56:15.526Z,141.28
2019-02-27T05:56:50.357Z,152.50
2019-02-27T05:57:27.814Z,148.85
2019-02-27T05:58:05.477Z,145.62
2019-02-27T05:58:43.678Z,142.22
2019-02-27T05:59:23.854Z,135.20
2019-02-27T06:00:02.770Z,148.80
2019-02-27T06:00:40.541Z,147.20
2019-02-27T06:01:17.723Z,145.22
2019-02-27T06:01:56.049Z,148.35
2019-02-27T06:02:33.597Z,155.22
2019-02-27T06:03:11.316Z,133.75
2019-02-27T06:03:49.406Z,140.75
2019-02-27T06:04:31.977Z,142.55
2019-02-27T06:05:09.653Z,142.53
2019-02-27T06:05:49.724Z,140.03
2019-02-27T06:06:25.987Z,148.40
2019-02-27T06:07:03.800Z,146.40
2019-02-27T06:07:41.703Z,144.32
2019-02-27T06:08:19.750Z,135.90
2019-02-27T06:08:57.809Z,151.65
2019-02-27T06:09:34.981Z,149.20
2019-02-27T06:10:14.622Z,141.88
2019-02-27T06:10:56.031Z,141.95
2019-02-27T06:11:36.730Z,133.43
2019-02-27T06:12:14.344Z,134.57
2019-02-27T06:12:52.011Z,137.80
2019-02-27T06:13:29.425Z,143.55
2019-02-27T06:14:07.464Z,140.50
2019-02-27T06:14:45.285Z,137.20
2019-02-27T06:15:23.313Z,145.20
2019-02-27T06:16:03.995Z,145.15
2019-02-27T06:16:40.903Z,136.05
2019-02-27T06:17:18.710Z,135.60
2019-02-27T06:17:56.624Z,138.75
2019-02-27T06:18:34.469Z,134.67
2019-02-27T06:19:12.012Z,134.85
2019-02-27T06:19:50.213Z,125.62
2019-02-27T06:20:28.153Z,129.18
2019-02-27T06:21:05.671Z,136.92
2019-02-27T06:21:43.702Z,127.70
2019-02-27T06:22:21.339Z,138.10
2019-02-27T06:22:58.919Z,126.20
2019-02-27T06:23:37.881Z,124.30
2019-02-27T06:24:16.229Z,131.12
2019-02-27T06:24:53.721Z,133.20
2019-02-27T06:25:32.692Z,124.53
2019-02-27T06:26:10.495Z,126.15
2019-02-27T06:26:48.617Z,133.55
2019-02-27T06:27:26.383Z,114.05
2019-02-27T06:28:04.234Z,114.10
2019-02-27T06:28:41.982Z,126.38
2019-02-27T06:29:23.287Z,122.05
2019-02-27T06:29:59.764Z,126.78
2019-02-27T06:30:37.611Z,122.13
2019-02-27T06:31:15.651Z,121.40
2019-02-27T06:31:52.409Z,123.42
2019-02-27T06:32:30.195Z,134.85
2019-02-27T06:33:11.649Z,122.50
2019-02-27T06:33:47.022Z,122.85
2019-02-27T06:34:24.842Z,114.82
2019-02-27T06:35:03.575Z,123.38
2019-02-27T06:35:41.707Z,113.95
2019-02-27T06:36:19.319Z,120.57
2019-02-27T06:36:56.877Z,117.33
2019-02-27T06:37:34.765Z,116.22
2019-02-27T06:38:12.543Z,114.92
2019-02-27T06:38:50.769Z,104.50
2019-02-27T06:39:28.315Z,120.50
2019-02-27T06:40:07.511Z,118.80
2019-02-27T06:40:45.707Z,113.90
2019-02-27T06:41:23.277Z,114.90
2019-02-27T06:42:02.579Z,109.50
2019-02-27T06:42:40.272Z,109.05
2019-02-27T06:43:18.549Z,112.25
2019-02-27T06:43:58.962Z,111.88
2019-02-27T06:44:36.631Z,116.60
2019-02-27T06:45:16.517Z,106.47
2019-02-27T06:45:54.572Z,110.57
2019-02-27T06:46:32.310Z,107.03
2019-02-27T06:47:10.181Z,114.77
2019-02-27T06:47:51.003Z,106.95
2019-02-27T06:48:28.941Z,104.10
2019-02-27T06:49:06.173Z,103.78
2019-02-27T06:49:44.055Z,116.12
2019-02-27T06:50:25.262Z,107.87
2019-02-27T06:51:01.637Z,104.03
2019-02-27T06:51:39.253Z,101.40
2019-02-27T06:52:17.094Z,104.58
2019-02-27T06:52:54.475Z,111.60
2019-02-27T06:53:37.843Z,104.80
2019-02-27T06:54:18.115Z,100.40
2019-02-27T06:54:54.899Z,111.05
2019-02-27T06:55:33.867Z,100.72
2019-02-27T06:56:12.143Z,108.47
2019-02-27T06:56:50.431Z,106.83
2019-02-27T06:57:28.162Z,96.75
2019-02-27T06:58:08.367Z,98.80
2019-02-27T06:58:47.566Z,105.67
2019-02-27T06:59:25.785Z,102.00
2019-02-27T07:00:03.298Z,100.15
2019-02-27T07:00:41.518Z,99.70
2019-02-27T07:01:19.405Z,101.67
2019-02-27T07:01:57.473Z,98.17
2019-02-27T07:02:35.282Z,103.15
2019-02-27T07:03:16.034Z,100.78
2019-02-27T07:03:53.805Z,98.45
2019-02-27T07:04:31.536Z,104.63
2019-02-27T07:05:13.287Z,101.00
2019-02-27T07:05:51.857Z,98.80
2019-02-27T07:06:29.347Z,100.42
2019-02-27T07:07:12.922Z,96.97
2019-02-27T07:08:09.192Z,103.05
2019-02-27T07:08:47.417Z,97.60
2019-02-27T07:09:24.943Z,96.80
2019-02-27T07:10:02.428Z,90.67
2019-02-27T07:10:39.927Z,97.47
2019-02-27T07:11:17.821Z,97.55
2019-02-27T07:11:55.671Z,96.12
2019-02-27T07:12:33.910Z,103.45
2019-02-27T07:13:11.287Z,95.38
2019-02-27T07:13:48.322Z,91.67
2019-02-27T07:14:25.787Z,91.22
2019-02-27T07:15:03.542Z,95.42
2019-02-27T07:15:40.990Z,88.45
2019-02-27T07:16:20.524Z,89.25
2019-02-27T07:16:58.135Z,89.58
2019-02-27T07:17:36.203Z,90.22
2019-02-27T07:18:13.685Z,93.40
2019-02-27T07:18:51.022Z,91.30
2019-02-27T07:19:28.501Z,94.97
2019-02-27T07:20:08.715Z,95.55
2019-02-27T07:20:46.034Z,87.20
2019-02-27T07:21:23.586Z,91.22
2019-02-27T07:22:01.742Z,84.30
2019-02-27T07:22:39.068Z,94.77
2019-02-27T07:23:22.641Z,85.90
2019-02-27T07:23:58.488Z,88.75
2019-02-27T07:24:36.023Z,90.47
2019-02-27T07:25:13.697Z,90.38
2019-02-27T07:25:51.714Z,88.22
2019-02-27T07:26:29.217Z,86.37
2019-02-27T07:27:07.049Z,86.00
2019-02-27T07:27:44.621Z,87.05
2019-02-27T07:28:22.759Z,88.65
2019-02-27T07:29:00.832Z,98.40
2019-02-27T07:29:38.919Z,85.97
2019-02-27T07:30:17.357Z,85.40
2019-02-27T07:30:55.445Z,84.00
2019-02-27T07:31:32.917Z,82.40
2019-02-27T07:32:11.012Z,90.40
2019-02-27T07:32:49.114Z,83.72
2019-02-27T07:33:27.286Z,86.40
2019-02-27T07:34:05.252Z,88.42
2019-02-27T07:34:42.664Z,87.35
2019-02-27T07:35:20.100Z,129.15
2019-02-27T07:35:57.605Z,122.53
2019-02-27T07:36:35.969Z,104.72
2019-02-27T07:37:15.064Z,87.72
2019-02-27T07:37:52.481Z,81.67
2019-02-27T07:38:49.044Z,91.47
2019-02-27T07:39:26.482Z,80.95
2019-02-27T07:40:08.037Z,83.17
2019-02-27T07:40:44.136Z,86.15
2019-02-27T07:41:22.214Z,80.00
2019-02-27T07:42:00.078Z,86.90
2019-02-27T07:42:38.193Z,90.10
2019-02-27T07:43:16.222Z,77.70
2019-02-27T07:43:54.483Z,88.95
2019-02-27T07:44:34.736Z,81.70
2019-02-27T07:45:14.536Z,86.53
2019-02-27T07:45:51.526Z,86.90
2019-02-27T07:46:29.332Z,86.02
2019-02-27T07:47:07.086Z,75.05
2019-02-27T07:47:44.275Z,77.78
2019-02-27T07:48:22.078Z,79.55
2019-02-27T07:49:01.473Z,81.60
2019-02-27T07:49:39.038Z,76.37
2019-02-27T07:50:17.188Z,75.92
2019-02-27T07:50:54.924Z,80.22
2019-02-27T07:51:32.672Z,82.92
2019-02-27T07:52:10.476Z,78.45
2019-02-27T07:52:48.324Z,78.55
2019-02-27T07:53:26.415Z,78.00
2019-02-27T07:54:04.019Z,76.65
2019-02-27T07:54:42.146Z,75.92
2019-02-27T07:55:22.909Z,85.15
2019-02-27T07:56:18.236Z,79.65
2019-02-27T07:56:55.674Z,82.05
2019-02-27T07:57:33.379Z,75.40
2019-02-27T07:58:11.404Z,75.95
2019-02-27T07:58:49.141Z,78.17
2019-02-27T07:59:27.136Z,76.17
2019-02-27T08:00:05.632Z,78.72
2019-02-27T08:00:43.052Z,78.15
2019-02-27T08:01:23.482Z,77.62
2019-02-27T08:02:03.077Z,73.33
2019-02-27T08:02:39.544Z,73.50
2019-02-27T08:03:16.970Z,80.57
2019-02-27T08:03:54.901Z,77.78
2019-02-27T08:04:32.788Z,76.17
2019-02-27T08:05:10.776Z,73.17
2019-02-27T08:05:48.488Z,72.22
2019-02-27T08:06:26.526Z,75.70
2019-02-27T08:07:04.550Z,72.12
2019-02-27T08:07:42.386Z,76.45
2019-02-27T08:08:28.520Z,78.00
2019-02-27T08:09:06.736Z,76.17
2019-02-27T08:09:44.296Z,69.77
2019-02-27T08:10:22.134Z,69.15
2019-02-27T08:10:59.610Z,77.32
2019-02-27T08:11:37.912Z,75.28
2019-02-27T08:12:17.506Z,73.92
2019-02-27T08:12:56.487Z,79.65
2019-02-27T08:13:33.700Z,70.05
2019-02-27T08:14:12.905Z,70.80
2019-02-27T08:14:50.132Z,77.58
2019-02-27T08:15:27.537Z,74.10
2019-02-27T08:16:05.127Z,69.75
2019-02-27T08:16:43.136Z,67.58
2019-02-27T08:17:21.132Z,67.08
2019-02-27T08:17:58.808Z,72.32
2019-02-27T08:18:38.042Z,73.40
2019-02-27T08:19:15.910Z,69.80
2019-02-27T08:19:53.649Z,72.10
2019-02-27T08:20:30.918Z,75.80
2019-02-27T08:21:08.987Z,69.75
2019-02-27T08:21:46.878Z,65.85
2019-02-27T08:22:24.944Z,67.97
2019-02-27T08:23:02.892Z,66.33
2019-02-27T08:23:40.945Z,65.35
2019-02-27T08:24:18.404Z,69.40
2019-02-27T08:24:56.168Z,70.85
2019-02-27T08:25:33.958Z,66.35
2019-02-27T08:26:12.224Z,60.05
2019-02-27T08:26:50.397Z,68.33
2019-02-27T08:27:28.080Z,62.00
2019-02-27T08:28:05.820Z,61.80
2019-02-27T08:28:43.674Z,61.23
2019-02-27T08:29:21.488Z,68.72
2019-02-27T08:29:59.847Z,70.65
2019-02-27T08:30:37.694Z,74.55
2019-02-27T08:31:15.743Z,65.37
2019-02-27T08:31:53.779Z,65.52
2019-02-27T08:32:31.980Z,61.28
2019-02-27T08:33:11.078Z,67.00
2019-02-27T08:33:48.199Z,66.45
2019-02-27T08:34:25.268Z,65.05
2019-02-27T08:35:02.794Z,58.60
2019-02-27T08:35:40.616Z,69.47
2019-02-27T08:36:18.358Z,60.43
2019-02-27T08:36:56.392Z,63.70
2019-02-27T08:37:33.752Z,66.92
2019-02-27T08:38:11.536Z,58.95
2019-02-27T08:38:49.298Z,56.02
2019-02-27T08:39:27.005Z,57.13
2019-02-27T08:40:05.248Z,64.17
2019-02-27T08:40:43.208Z,58.75
2019-02-27T08:41:21.211Z,63.65
2019-02-27T08:41:58.277Z,58.15
2019-02-27T08:42:37.364Z,63.05
2019-02-27T08:43:15.036Z,64.27
2019-02-27T08:43:52.574Z,66.97
2019-02-27T08:44:30.302Z,71.57
2019-02-27T08:45:16.662Z,58.02
2019-02-27T08:45:48.377Z,57.50
2019-02-27T08:46:26.480Z,63.38
2019-02-27T08:47:04.336Z,61.70
2019-02-27T08:47:43.499Z,55.48
2019-02-27T08:48:20.887Z,59.30
2019-02-27T08:48:58.462Z,58.40
2019-02-27T08:49:36.512Z,61.65
2019-02-27T08:50:15.684Z,60.52
2019-02-27T08:50:53.128Z,59.88
2019-02-27T08:51:30.955Z,61.70